Time;durP1;ratioP1;P1;durP2;ratioP2;P2;SDS_P1;SDS_P2;PMS_P1;PMS_P2;Temp;Humidity;BMP_temperature;BMP_pressure;BME280_temperature;BME280_humidity;BME280_pressure;Samples;Min_cycle;Max_cycle;Signal;HPM_P1;HPM_P2
2021/01/12 00:00:14;;;;;;;;;;;11.30;62.60;;;;;;2074087;28;19934;-72
2021/01/12 00:01:16;;;;;;;;;;;11.40;61.70;;;;;;2073520;28;20330;-73
2021/01/12 00:02:19;;;;;;;;;;;11.50;60.80;;;;;;2072900;28;21072;-71
2021/01/12 00:03:22;;;;;;;;;;;11.50;61.10;;;;;;2073557;28;20370;-72
2021/01/12 00:04:23;;;;;;;;;;;11.40;61.30;;;;;;2073465;28;19933;-71
2021/01/12 00:05:25;;;;;;;;;;;11.70;60.60;;;;;;2073551;28;19950;-72
2021/01/12 00:06:26;;;;;;;;;;;11.60;59.90;;;;;;2073633;28;19929;-72
2021/01/12 00:07:28;;;;;;;;;;;12.10;60.00;;;;;;2073589;28;20381;-71
2021/01/12 00:08:29;;;;;;;;;;;12.00;58.40;;;;;;2073587;28;19925;-71
2021/01/12 00:09:31;;;;;;;;;;;11.70;58.70;;;;;;2073531;28;20366;-72
2021/01/12 00:10:32;;;;;;;;;;;11.70;59.90;;;;;;2074378;28;19929;-71
2021/01/12 00:11:33;;;;;;;;;;;11.50;60.50;;;;;;2074192;28;19925;-70
2021/01/12 00:12:35;;;;;;;;;;;11.50;60.70;;;;;;2074461;28;19926;-71
2021/01/12 00:13:36;;;;;;;;;;;11.20;61.30;;;;;;2074601;28;19948;-71
2021/01/12 00:14:38;;;;;;;;;;;11.20;61.80;;;;;;2073894;28;19925;-72
2021/01/12 00:15:39;;;;;;;;;;;10.90;60.90;;;;;;2073671;28;20417;-70
2021/01/12 00:16:40;;;;;;;;;;;11.50;62.20;;;;;;2074678;28;19925;-71
2021/01/12 00:17:42;;;;;;;;;;;11.40;60.30;;;;;;2074554;28;19925;-72
2021/01/12 00:18:44;;;;;;;;;;;11.60;61.30;;;;;;2074230;28;20263;-71
2021/01/12 00:19:46;;;;;;;;;;;11.80;60.70;;;;;;2074766;28;19932;-72
2021/01/12 00:20:50;;;;;;;;;;;12.00;59.70;;;;;;2074797;28;19932;-71
2021/01/12 00:21:51;;;;;;;;;;;11.70;59.10;;;;;;2074524;28;19925;-71
2021/01/12 00:22:52;;;;;;;;;;;11.60;59.60;;;;;;2074239;28;19965;-71
2021/01/12 00:23:54;;;;;;;;;;;12.00;59.50;;;;;;2075174;28;19932;-72
2021/01/12 00:24:55;;;;;;;;;;;11.90;58.80;;;;;;2075643;28;19932;-71
2021/01/12 00:25:57;;;;;;;;;;;11.50;59.00;;;;;;2075910;28;19933;-74
2021/01/12 00:26:58;;;;;;;;;;;11.50;60.80;;;;;;2076616;28;19949;-72
2021/01/12 00:27:59;;;;;;;;;;;11.60;59.70;;;;;;2075217;28;19933;-72
2021/01/12 00:29:01;;;;;;;;;;;11.80;60.50;;;;;;2075460;28;19925;-71
2021/01/12 00:30:03;;;;;;;;;;;12.10;59.20;;;;;;2075728;28;19929;-71
2021/01/12 00:31:04;;;;;;;;;;;12.00;59.20;;;;;;2075865;28;19937;-71
2021/01/12 00:32:06;;;;;;;;;;;12.00;58.90;;;;;;2075300;28;19947;-71
2021/01/12 00:33:08;;;;;;;;;;;12.50;58.20;;;;;;2074585;28;19926;-72
2021/01/12 00:34:11;;;;;;;;;;;12.70;57.40;;;;;;2075092;28;19940;-72
2021/01/12 00:35:13;;;;;;;;;;;12.80;57.00;;;;;;2075663;28;19933;-71
2021/01/12 00:36:14;;;;;;;;;;;13.10;56.40;;;;;;2076050;28;19940;-71
2021/01/12 00:37:16;;;;;;;;;;;12.80;56.00;;;;;;2076108;28;19926;-70
2021/01/12 00:38:18;;;;;;;;;;;13.10;56.20;;;;;;2074740;28;20420;-72
2021/01/12 00:39:20;;;;;;;;;;;12.50;55.10;;;;;;2074726;28;19926;-73
2021/01/12 00:40:21;;;;;;;;;;;12.40;57.50;;;;;;2075230;28;19932;-72
2021/01/12 00:41:24;;;;;;;;;;;12.30;57.60;;;;;;2074658;28;20278;-72
2021/01/12 00:42:25;;;;;;;;;;;12.00;57.40;;;;;;2074027;28;19925;-74
2021/01/12 00:43:26;;;;;;;;;;;11.70;59.20;;;;;;2074273;28;19926;-73
2021/01/12 00:44:28;;;;;;;;;;;11.50;60.00;;;;;;2074188;28;19937;-72
2021/01/12 00:45:29;;;;;;;;;;;11.70;59.80;;;;;;2074618;28;20191;-72
2021/01/12 00:46:31;;;;;;;;;;;11.40;59.50;;;;;;2074679;28;20362;-71
2021/01/12 00:47:33;;;;;;;;;;;11.50;61.60;;;;;;2074978;28;19925;-72
2021/01/12 00:48:34;;;;;;;;;;;11.70;60.70;;;;;;2075161;28;19929;-71
2021/01/12 00:49:37;;;;;;;;;;;11.30;59.90;;;;;;2076104;28;19937;-71
2021/01/12 00:50:38;;;;;;;;;;;11.50;60.30;;;;;;2075866;28;19987;-72
2021/01/12 00:51:40;;;;;;;;;;;11.50;60.80;;;;;;2075331;28;19926;-72
2021/01/12 00:52:42;;;;;;;;;;;11.50;60.60;;;;;;2082835;28;19925;-74
2021/01/12 00:53:43;;;;;;;;;;;11.50;61.30;;;;;;2083701;28;19925;-71
2021/01/12 00:54:50;;;;;;;;;;;11.60;60.20;;;;;;2084208;28;19925;-72
2021/01/12 00:55:51;;;;;;;;;;;11.50;60.50;;;;;;2084439;28;19936;-72
2021/01/12 00:56:53;;;;;;;;;;;11.80;60.60;;;;;;2084518;28;19941;-71
2021/01/12 00:57:54;;;;;;;;;;;12.10;59.50;;;;;;2084519;28;19932;-71
2021/01/12 00:58:56;;;;;;;;;;;12.20;58.50;;;;;;2083997;28;20188;-72
2021/01/12 00:59:57;;;;;;;;;;;11.80;59.40;;;;;;2084196;28;19925;-71
2021/01/12 01:00:59;;;;;;;;;;;11.80;60.30;;;;;;2084329;28;19933;-71
2021/01/12 01:02:01;;;;;;;;;;;11.90;60.30;;;;;;2083879;28;19925;-71
2021/01/12 01:03:02;;;;;;;;;;;11.70;60.40;;;;;;2084110;28;20024;-72
2021/01/12 01:04:05;;;;;;;;;;;11.50;61.10;;;;;;2084553;28;19929;-74
2021/01/12 01:05:08;;;;;;;;;;;11.20;62.70;;;;;;2084321;28;19963;-73
2021/01/12 01:06:11;;;;;;;;;;;11.30;62.80;;;;;;2084170;28;19925;-72
2021/01/12 01:07:12;;;;;;;;;;;11.00;62.90;;;;;;2084168;28;19929;-72
2021/01/12 01:08:13;;;;;;;;;;;11.10;63.20;;;;;;2083794;28;19952;-73
2021/01/12 01:09:16;;;;;;;;;;;11.30;62.50;;;;;;2083846;28;20021;-72
2021/01/12 01:10:18;;;;;;;;;;;11.10;62.50;;;;;;2083644;28;19930;-71
2021/01/12 01:11:19;;;;;;;;;;;10.90;63.10;;;;;;2084172;28;19925;-72
2021/01/12 01:12:21;;;;;;;;;;;10.90;64.00;;;;;;2083969;28;19932;-72
2021/01/12 01:13:22;;;;;;;;;;;11.30;63.20;;;;;;2082944;28;20022;-72
2021/01/12 01:14:24;;;;;;;;;;;10.80;63.50;;;;;;2083154;28;19925;-72
2021/01/12 01:15:25;;;;;;;;;;;10.20;65.80;;;;;;2083285;28;19940;-71
2021/01/12 01:16:30;;;;;;;;;;;10.20;67.00;;;;;;2083094;28;19925;-74
2021/01/12 01:17:33;;;;;;;;;;;10.30;67.00;;;;;;2082402;28;19940;-72
2021/01/12 01:18:35;;;;;;;;;;;10.60;65.90;;;;;;2081795;28;19983;-71
2021/01/12 01:19:36;;;;;;;;;;;11.00;64.60;;;;;;2082630;28;19932;-71
2021/01/12 01:20:39;;;;;;;;;;;10.80;64.00;;;;;;2081585;28;19932;-71
2021/01/12 01:21:40;;;;;;;;;;;10.80;64.60;;;;;;2081364;28;19925;-71
2021/01/12 01:22:42;;;;;;;;;;;11.00;64.00;;;;;;2081192;28;20408;-73
2021/01/12 01:23:43;;;;;;;;;;;10.90;63.90;;;;;;2082435;28;19952;-73
2021/01/12 01:24:45;;;;;;;;;;;10.70;65.00;;;;;;2083404;28;20377;-73
2021/01/12 01:25:46;;;;;;;;;;;10.70;65.10;;;;;;2083202;28;19925;-72
2021/01/12 01:26:48;;;;;;;;;;;10.70;65.60;;;;;;2082393;28;19925;-73
2021/01/12 01:27:49;;;;;;;;;;;10.70;65.60;;;;;;2082543;28;19931;-72
2021/01/12 01:28:50;;;;;;;;;;;10.90;65.40;;;;;;2082659;28;19936;-74
2021/01/12 01:29:52;;;;;;;;;;;11.20;64.70;;;;;;2082826;28;19936;-72
2021/01/12 01:30:54;;;;;;;;;;;11.40;63.10;;;;;;2082401;28;20011;-71
2021/01/12 01:31:56;;;;;;;;;;;11.30;62.80;;;;;;2076131;28;20016;-72
2021/01/12 01:32:58;;;;;;;;;;;11.20;62.30;;;;;;2083652;28;20012;-73
2021/01/12 01:33:59;;;;;;;;;;;10.90;63.50;;;;;;2084440;28;19925;-73
2021/01/12 01:35:01;;;;;;;;;;;11.00;64.50;;;;;;2084092;28;20397;-73
2021/01/12 01:36:04;;;;;;;;;;;11.30;63.20;;;;;;2083991;28;20196;-72
2021/01/12 01:37:06;;;;;;;;;;;11.20;64.20;;;;;;2083987;28;19925;-73
2021/01/12 01:38:08;;;;;;;;;;;11.10;62.50;;;;;;2083565;28;19925;-72
2021/01/12 01:39:10;;;;;;;;;;;11.60;62.40;;;;;;2083575;28;19925;-74
2021/01/12 01:40:14;;;;;;;;;;;11.30;61.70;;;;;;2083424;28;19934;-71
2021/01/12 01:41:16;;;;;;;;;;;11.60;62.60;;;;;;2083325;28;20007;-71
2021/01/12 01:42:17;;;;;;;;;;;11.50;61.80;;;;;;2083711;28;19978;-72
2021/01/12 01:43:20;;;;;;;;;;;11.40;62.20;;;;;;2083983;28;19925;-71
2021/01/12 01:44:21;;;;;;;;;;;11.40;61.90;;;;;;2084432;28;19925;-71
2021/01/12 01:45:24;;;;;;;;;;;11.20;61.90;;;;;;2084372;28;19925;-73
2021/01/12 01:46:25;;;;;;;;;;;11.30;62.60;;;;;;2084500;28;19925;-74
2021/01/12 01:47:27;;;;;;;;;;;11.00;62.90;;;;;;2084280;28;19932;-71
2021/01/12 01:48:29;;;;;;;;;;;11.00;64.20;;;;;;2084035;28;20278;-74
2021/01/12 01:49:30;;;;;;;;;;;10.90;64.20;;;;;;2083895;28;19932;-73
2021/01/12 01:50:31;;;;;;;;;;;10.60;64.90;;;;;;2083987;28;19933;-73
2021/01/12 01:51:34;;;;;;;;;;;10.80;65.50;;;;;;2084300;28;19925;-73
2021/01/12 01:52:35;;;;;;;;;;;10.90;64.30;;;;;;2084427;28;19925;-72
2021/01/12 01:53:37;;;;;;;;;;;10.60;65.10;;;;;;2083735;28;19932;-72
2021/01/12 01:54:39;;;;;;;;;;;10.30;67.00;;;;;;2084022;28;19989;-73
2021/01/12 01:55:40;;;;;;;;;;;10.50;67.70;;;;;;2084014;28;19933;-75
2021/01/12 01:56:43;;;;;;;;;;;10.50;66.30;;;;;;2083925;28;20325;-73
2021/01/12 01:57:44;;;;;;;;;;;10.60;65.40;;;;;;2083889;28;19925;-73
2021/01/12 01:58:46;;;;;;;;;;;10.60;66.30;;;;;;2083558;28;19936;-73
2021/01/12 01:59:47;;;;;;;;;;;10.70;65.80;;;;;;2083256;28;19925;-74
2021/01/12 02:00:48;;;;;;;;;;;10.90;65.20;;;;;;2083376;28;19925;-74
2021/01/12 02:01:50;;;;;;;;;;;11.10;64.20;;;;;;2083290;28;19952;-72
2021/01/12 02:02:55;;;;;;;;;;;11.20;64.10;;;;;;2084055;28;19956;-72
2021/01/12 02:04:02;;;;;;;;;;;11.60;63.00;;;;;;2083945;28;19936;-72
2021/01/12 02:05:05;;;;;;;;;;;11.60;61.90;;;;;;2083800;28;19925;-73
2021/01/12 02:06:11;;;;;;;;;;;11.60;62.60;;;;;;2082722;28;19932;-72
2021/01/12 02:07:14;;;;;;;;;;;12.00;61.70;;;;;;2083148;28;19925;-73
2021/01/12 02:08:18;;;;;;;;;;;11.30;62.20;;;;;;2083134;28;19926;-71
2021/01/12 02:09:22;;;;;;;;;;;11.20;63.00;;;;;;2083788;28;19932;-71
2021/01/12 02:10:24;;;;;;;;;;;11.20;63.60;;;;;;2083496;28;20354;-72
2021/01/12 02:11:27;;;;;;;;;;;11.20;63.50;;;;;;2083711;28;19932;-76
2021/01/12 02:12:31;;;;;;;;;;;11.00;63.70;;;;;;2083474;28;20396;-73
2021/01/12 02:13:33;;;;;;;;;;;11.30;64.60;;;;;;2083693;28;19929;-72
2021/01/12 02:14:37;;;;;;;;;;;11.60;63.50;;;;;;2083347;28;19926;-72
2021/01/12 02:15:39;;;;;;;;;;;11.40;63.00;;;;;;2083704;28;19925;-73
2021/01/12 02:16:42;;;;;;;;;;;11.10;63.60;;;;;;2083133;28;19946;-73
2021/01/12 02:17:45;;;;;;;;;;;11.40;63.40;;;;;;2075337;28;19925;-72
2021/01/12 02:18:47;;;;;;;;;;;11.40;63.00;;;;;;2082802;28;19936;-72
2021/01/12 02:19:51;;;;;;;;;;;11.60;62.50;;;;;;2082994;28;19932;-73
2021/01/12 02:20:52;;;;;;;;;;;11.20;63.80;;;;;;2083477;28;19925;-73
2021/01/12 02:21:58;;;;;;;;;;;11.60;63.70;;;;;;2083627;28;19936;-72
2021/01/12 02:23:04;;;;;;;;;;;11.40;63.00;;;;;;2083657;28;19932;-70
2021/01/12 02:24:08;;;;;;;;;;;11.60;63.00;;;;;;2083185;28;19928;-71
2021/01/12 02:25:10;;;;;;;;;;;11.30;63.80;;;;;;2083114;28;19925;-73
2021/01/12 02:26:11;;;;;;;;;;;11.30;64.40;;;;;;2083287;28;19944;-74
2021/01/12 02:27:19;;;;;;;;;;;11.30;63.70;;;;;;2083079;28;19936;-71
2021/01/12 02:28:20;;;;;;;;;;;11.50;63.30;;;;;;2083261;28;20266;-72
2021/01/12 02:29:22;;;;;;;;;;;11.30;63.50;;;;;;2083210;28;20293;-71
2021/01/12 02:30:23;;;;;;;;;;;11.40;63.90;;;;;;2083356;28;19978;-73
2021/01/12 02:31:28;;;;;;;;;;;11.10;64.30;;;;;;2082717;28;20374;-73
2021/01/12 02:32:30;;;;;;;;;;;11.50;63.80;;;;;;2082833;28;19925;-73
2021/01/12 02:33:32;;;;;;;;;;;11.30;63.50;;;;;;2083416;28;19932;-73
2021/01/12 02:34:35;;;;;;;;;;;11.10;64.20;;;;;;2083955;28;19936;-72
2021/01/12 02:35:39;;;;;;;;;;;10.90;65.60;;;;;;2083383;28;19932;-74
2021/01/12 02:36:41;;;;;;;;;;;10.60;67.20;;;;;;2083035;28;19952;-75
2021/01/12 02:37:44;;;;;;;;;;;10.50;67.80;;;;;;2083927;28;19925;-71
2021/01/12 02:38:46;;;;;;;;;;;10.80;67.30;;;;;;2084410;28;19937;-76
2021/01/12 02:39:56;;;;;;;;;;;11.20;65.90;;;;;;2084104;28;20412;-72
2021/01/12 02:41:06;;;;;;;;;;;11.50;64.60;;;;;;2084023;28;19925;-73
2021/01/12 02:42:14;;;;;;;;;;;11.40;64.20;;;;;;2083310;28;19932;-74
2021/01/12 02:43:16;;;;;;;;;;;11.50;63.80;;;;;;2084538;28;19925;-74
2021/01/12 02:44:21;;;;;;;;;;;11.10;64.00;;;;;;2084007;28;19926;-75
2021/01/12 02:45:23;;;;;;;;;;;11.10;64.90;;;;;;2084191;28;20084;-71
2021/01/12 02:46:24;;;;;;;;;;;10.90;64.90;;;;;;2080953;28;20396;-72
2021/01/12 02:47:26;;;;;;;;;;;10.90;66.30;;;;;;2075152;28;19925;-72
2021/01/12 02:48:27;;;;;;;;;;;11.20;65.60;;;;;;2075550;28;19925;-72
2021/01/12 02:49:29;;;;;;;;;;;11.10;65.30;;;;;;2075992;28;19941;-72
2021/01/12 02:50:30;;;;;;;;;;;11.10;65.30;;;;;;2075310;28;19929;-72
2021/01/12 02:51:34;;;;;;;;;;;11.10;65.70;;;;;;2075898;28;19925;-73
2021/01/12 02:52:35;;;;;;;;;;;11.10;66.10;;;;;;2083276;28;19972;-73
2021/01/12 02:53:37;;;;;;;;;;;10.90;66.30;;;;;;2084514;28;19932;-73
2021/01/12 02:54:39;;;;;;;;;;;10.90;66.70;;;;;;2084850;28;19925;-73
2021/01/12 02:55:42;;;;;;;;;;;11.40;65.50;;;;;;2085233;28;19936;-78
2021/01/12 02:56:43;;;;;;;;;;;11.20;64.80;;;;;;2085140;28;19929;-77
2021/01/12 02:57:44;;;;;;;;;;;11.20;65.00;;;;;;2085042;28;19932;-73
2021/01/12 02:58:50;;;;;;;;;;;11.10;65.10;;;;;;2085205;28;19932;-73
2021/01/12 02:59:51;;;;;;;;;;;11.10;65.30;;;;;;2085215;28;19925;-74
2021/01/12 03:00:53;;;;;;;;;;;10.90;66.80;;;;;;2084941;28;19936;-73
2021/01/12 03:01:54;;;;;;;;;;;11.20;65.60;;;;;;2083181;28;20374;-73
2021/01/12 03:02:56;;;;;;;;;;;11.20;65.30;;;;;;2083366;28;19925;-71
2021/01/12 03:03:57;;;;;;;;;;;11.20;64.70;;;;;;2083871;28;19932;-74
2021/01/12 03:04:59;;;;;;;;;;;11.50;64.70;;;;;;2084213;28;19925;-72
2021/01/12 03:06:00;;;;;;;;;;;11.20;64.70;;;;;;2083790;28;20362;-72
2021/01/12 03:07:02;;;;;;;;;;;11.30;64.80;;;;;;2084187;28;19932;-74
2021/01/12 03:08:04;;;;;;;;;;;11.60;63.60;;;;;;2084391;28;20485;-72
2021/01/12 03:09:06;;;;;;;;;;;11.20;64.30;;;;;;2083819;28;19929;-71
2021/01/12 03:10:08;;;;;;;;;;;11.30;64.20;;;;;;2084672;28;19925;-74
2021/01/12 03:11:10;;;;;;;;;;;11.30;64.60;;;;;;2084250;28;20286;-73
2021/01/12 03:12:11;;;;;;;;;;;11.70;63.80;;;;;;2084046;28;19925;-72
2021/01/12 03:13:13;;;;;;;;;;;11.60;62.70;;;;;;2084145;28;19925;-71
2021/01/12 03:14:14;;;;;;;;;;;11.30;64.30;;;;;;2083304;28;20381;-72
2021/01/12 03:15:16;;;;;;;;;;;11.30;65.00;;;;;;2083324;28;19968;-72
2021/01/12 03:16:17;;;;;;;;;;;11.60;64.60;;;;;;2083434;28;19978;-72
2021/01/12 03:17:19;;;;;;;;;;;11.30;64.60;;;;;;2083082;28;19936;-73
2021/01/12 03:18:21;;;;;;;;;;;10.80;66.80;;;;;;2083163;28;19925;-73
2021/01/12 03:19:22;;;;;;;;;;;10.50;68.70;;;;;;2083241;28;20314;-72
2021/01/12 03:20:26;;;;;;;;;;;10.30;69.90;;;;;;2082758;28;19933;-73
2021/01/12 03:21:28;;;;;;;;;;;10.80;68.50;;;;;;2082560;28;19925;-71
2021/01/12 03:22:29;;;;;;;;;;;10.80;68.20;;;;;;2082523;28;19932;-71
2021/01/12 03:23:34;;;;;;;;;;;10.90;67.10;;;;;;2082250;28;19932;-73
2021/01/12 03:24:37;;;;;;;;;;;10.70;68.30;;;;;;2082291;28;19950;-74
2021/01/12 03:25:38;;;;;;;;;;;10.60;68.10;;;;;;2082481;28;19933;-72
2021/01/12 03:26:40;;;;;;;;;;;10.70;68.80;;;;;;2082820;28;20293;-71
2021/01/12 03:27:42;;;;;;;;;;;10.50;69.00;;;;;;2082854;28;20008;-72
2021/01/12 03:28:43;;;;;;;;;;;10.70;68.90;;;;;;2082314;28;19925;-71
2021/01/12 03:29:45;;;;;;;;;;;10.80;68.50;;;;;;2082450;28;19936;-71
2021/01/12 03:30:46;;;;;;;;;;;10.70;68.90;;;;;;2082793;28;19936;-71
2021/01/12 03:31:48;;;;;;;;;;;10.80;68.90;;;;;;2082857;28;19925;-71
2021/01/12 03:32:50;;;;;;;;;;;10.60;69.90;;;;;;2083471;28;19940;-71
2021/01/12 03:33:51;;;;;;;;;;;10.50;71.90;;;;;;2082814;28;19925;-72
2021/01/12 03:34:52;;;;;;;;;;;10.40;72.40;;;;;;2082870;28;19925;-72
2021/01/12 03:35:54;;;;;;;;;;;10.40;72.00;;;;;;2083935;28;20495;-71
2021/01/12 03:36:55;;;;;;;;;;;10.80;70.50;;;;;;2083686;28;20296;-73
2021/01/12 03:37:58;;;;;;;;;;;10.20;73.50;;;;;;2082788;28;19937;-72
2021/01/12 03:38:59;;;;;;;;;;;10.10;75.10;;;;;;2084130;28;19929;-75
2021/01/12 03:40:01;;;;;;;;;;;9.70;77.90;;;;;;2083324;28;19925;-72
2021/01/12 03:41:02;;;;;;;;;;;9.90;78.10;;;;;;2083185;28;19925;-72
2021/01/12 03:42:05;;;;;;;;;;;9.80;78.90;;;;;;2083167;28;19933;-72
2021/01/12 03:43:07;;;;;;;;;;;9.80;77.80;;;;;;2082967;28;19929;-72
2021/01/12 03:44:09;;;;;;;;;;;10.00;77.40;;;;;;2082787;28;19925;-72
2021/01/12 03:45:10;;;;;;;;;;;9.90;78.40;;;;;;2082423;28;20421;-72
2021/01/12 03:46:12;;;;;;;;;;;9.80;78.30;;;;;;2082317;28;19955;-72
2021/01/12 03:47:13;;;;;;;;;;;9.60;78.20;;;;;;2082368;28;19959;-72
2021/01/12 03:48:15;;;;;;;;;;;9.40;80.30;;;;;;2082635;28;20393;-72
2021/01/12 03:49:21;;;;;;;;;;;9.90;78.30;;;;;;2082944;28;19933;-71
2021/01/12 03:50:25;;;;;;;;;;;10.10;78.20;;;;;;2082924;28;19925;-72
2021/01/12 03:51:26;;;;;;;;;;;9.80;79.00;;;;;;2082917;28;20026;-72
2021/01/12 03:52:28;;;;;;;;;;;10.10;77.90;;;;;;2082964;28;20269;-72
2021/01/12 03:53:29;;;;;;;;;;;9.80;78.10;;;;;;2082525;28;19925;-72
2021/01/12 03:54:31;;;;;;;;;;;9.90;80.10;;;;;;2083477;28;19925;-73
2021/01/12 03:55:32;;;;;;;;;;;10.40;77.00;;;;;;2084178;28;19925;-74
2021/01/12 03:56:33;;;;;;;;;;;10.70;74.60;;;;;;2084368;28;19932;-72
2021/01/12 03:57:36;;;;;;;;;;;10.80;74.90;;;;;;2083892;28;19932;-72
2021/01/12 03:58:37;;;;;;;;;;;10.60;73.80;;;;;;2083936;28;19925;-72
2021/01/12 03:59:39;;;;;;;;;;;10.30;76.20;;;;;;2084219;28;19932;-72
2021/01/12 04:00:40;;;;;;;;;;;9.90;78.30;;;;;;2084055;28;20195;-72
2021/01/12 04:01:42;;;;;;;;;;;9.70;79.50;;;;;;2084183;28;20289;-76
2021/01/12 04:02:44;;;;;;;;;;;9.80;79.50;;;;;;2083267;28;19929;-73
2021/01/12 04:03:45;;;;;;;;;;;9.80;79.70;;;;;;2083369;28;19925;-74
2021/01/12 04:04:47;;;;;;;;;;;9.70;80.30;;;;;;2083811;28;19925;-72
2021/01/12 04:05:51;;;;;;;;;;;9.60;81.00;;;;;;2082413;28;19925;-72
2021/01/12 04:06:52;;;;;;;;;;;9.40;81.70;;;;;;2074678;28;20012;-71
2021/01/12 04:07:54;;;;;;;;;;;9.50;81.60;;;;;;2082281;28;19932;-73
2021/01/12 04:08:56;;;;;;;;;;;9.50;82.60;;;;;;2082223;28;20443;-71
2021/01/12 04:09:57;;;;;;;;;;;9.60;81.40;;;;;;2082431;28;20401;-72
2021/01/12 04:10:59;;;;;;;;;;;9.30;82.60;;;;;;2082093;28;19940;-71
2021/01/12 04:12:00;;;;;;;;;;;9.60;82.90;;;;;;2082454;28;19933;-71
2021/01/12 04:13:03;;;;;;;;;;;9.80;82.70;;;;;;2082615;28;20329;-71
2021/01/12 04:14:06;;;;;;;;;;;10.00;82.00;;;;;;2082667;28;20385;-73
2021/01/12 04:15:08;;;;;;;;;;;10.20;79.40;;;;;;2083426;28;19932;-72
2021/01/12 04:16:09;;;;;;;;;;;10.30;78.80;;;;;;2082972;28;19925;-72
2021/01/12 04:17:11;;;;;;;;;;;10.60;77.00;;;;;;2082888;28;19932;-71
2021/01/12 04:18:13;;;;;;;;;;;10.30;78.00;;;;;;2082898;28;19925;-71
2021/01/12 04:19:14;;;;;;;;;;;10.70;77.50;;;;;;2082650;28;19936;-73
2021/01/12 04:20:16;;;;;;;;;;;10.60;76.40;;;;;;2082805;28;19925;-71
2021/01/12 04:21:17;;;;;;;;;;;10.60;97.20;;;;;;2082919;28;19932;-71
2021/01/12 04:22:18;;;;;;;;;;;10.80;99.90;;;;;;2082425;28;19932;-72
2021/01/12 04:23:20;;;;;;;;;;;10.50;99.90;;;;;;2082661;28;19944;-71
2021/01/12 04:24:21;;;;;;;;;;;10.10;99.90;;;;;;2082354;28;19932;-71
2021/01/12 04:25:23;;;;;;;;;;;10.30;99.90;;;;;;2082411;28;19925;-72
2021/01/12 04:26:24;;;;;;;;;;;10.00;99.90;;;;;;2082344;28;20186;-70
2021/01/12 04:27:26;;;;;;;;;;;10.00;99.90;;;;;;2082405;28;19932;-71
2021/01/12 04:28:28;;;;;;;;;;;10.30;99.90;;;;;;2081531;28;20187;-72
2021/01/12 04:29:29;;;;;;;;;;;10.20;99.90;;;;;;2081483;28;19925;-71
2021/01/12 04:30:31;;;;;;;;;;;10.10;99.90;;;;;;2082397;28;19925;-74
2021/01/12 04:31:33;;;;;;;;;;;9.90;99.90;;;;;;2082134;28;19925;-71
2021/01/12 04:32:34;;;;;;;;;;;10.30;99.90;;;;;;2081255;28;19971;-71
2021/01/12 04:33:36;;;;;;;;;;;10.20;91.10;;;;;;2081466;28;19932;-71
2021/01/12 04:34:37;;;;;;;;;;;10.40;84.30;;;;;;2081914;28;20083;-70
2021/01/12 04:35:39;;;;;;;;;;;10.20;82.00;;;;;;2081522;28;19925;-70
2021/01/12 04:36:40;;;;;;;;;;;10.30;80.80;;;;;;2081359;28;20399;-72
2021/01/12 04:37:41;;;;;;;;;;;10.40;79.20;;;;;;2081666;28;20290;-71
2021/01/12 04:38:43;;;;;;;;;;;10.20;80.50;;;;;;2081899;28;20044;-71
2021/01/12 04:39:44;;;;;;;;;;;10.40;79.40;;;;;;2081756;28;20253;-70
2021/01/12 04:40:46;;;;;;;;;;;10.40;80.00;;;;;;2082069;28;19925;-73
2021/01/12 04:41:47;;;;;;;;;;;10.40;80.10;;;;;;2082107;28;20386;-71
2021/01/12 04:42:49;;;;;;;;;;;10.40;79.90;;;;;;2081962;28;19925;-72
2021/01/12 04:43:51;;;;;;;;;;;10.40;79.70;;;;;;2082228;28;19925;-71
2021/01/12 04:44:52;;;;;;;;;;;10.90;77.80;;;;;;2081820;28;19932;-74
2021/01/12 04:45:54;;;;;;;;;;;10.40;79.40;;;;;;2081472;28;19925;-71
2021/01/12 04:46:55;;;;;;;;;;;10.40;79.10;;;;;;2074019;28;19976;-71
2021/01/12 04:47:57;;;;;;;;;;;10.70;78.10;;;;;;2073788;28;20292;-71
2021/01/12 04:48:59;;;;;;;;;;;10.50;79.60;;;;;;2073602;28;19933;-71
2021/01/12 04:50:00;;;;;;;;;;;10.10;80.40;;;;;;2073549;28;19925;-71
2021/01/12 04:51:03;;;;;;;;;;;10.20;81.20;;;;;;2073581;28;20279;-71
2021/01/12 04:52:05;;;;;;;;;;;10.10;81.50;;;;;;2076276;28;19941;-71
2021/01/12 04:53:07;;;;;;;;;;;10.20;79.80;;;;;;2081490;28;19925;-71
2021/01/12 04:54:09;;;;;;;;;;;11.00;77.10;;;;;;2081693;28;19932;-71
2021/01/12 04:55:11;;;;;;;;;;;11.10;77.50;;;;;;2082074;28;19925;-71
2021/01/12 04:56:15;;;;;;;;;;;10.60;78.40;;;;;;2082452;28;20007;-72
2021/01/12 04:57:17;;;;;;;;;;;10.40;79.90;;;;;;2082607;28;19925;-71
2021/01/12 04:58:18;;;;;;;;;;;10.40;79.90;;;;;;2082262;28;19932;-71
2021/01/12 05:01:41;;;;;;;;;;;10.60;78.80;;;;;;2138703;23;19926;-74
2021/01/12 05:02:54;;;;;;;;;;;10.80;78.20;;;;;;2067005;28;19921;-75
2021/01/12 05:03:56;;;;;;;;;;;11.10;76.70;;;;;;2065645;28;19973;-75
2021/01/12 05:04:57;;;;;;;;;;;11.10;77.50;;;;;;2066380;28;19932;-75
2021/01/12 05:05:58;;;;;;;;;;;11.00;77.20;;;;;;2067665;28;20259;-74
2021/01/12 05:07:00;;;;;;;;;;;11.10;77.60;;;;;;2067839;28;19936;-75
2021/01/12 05:08:03;;;;;;;;;;;10.70;78.70;;;;;;2067123;28;20371;-76
2021/01/12 05:09:05;;;;;;;;;;;10.60;79.50;;;;;;2067186;28;20428;-75
2021/01/12 05:10:10;;;;;;;;;;;11.10;76.80;;;;;;2067590;28;20390;-75
2021/01/12 05:11:12;;;;;;;;;;;11.20;76.80;;;;;;2074554;28;20416;-75
2021/01/12 05:12:14;;;;;;;;;;;11.60;75.40;;;;;;2067952;28;19925;-76
2021/01/12 05:13:17;;;;;;;;;;;11.40;74.80;;;;;;2067996;28;19976;-76
2021/01/12 05:14:21;;;;;;;;;;;11.10;76.70;;;;;;2067226;28;19929;-77
2021/01/12 05:15:23;;;;;;;;;;;11.10;76.70;;;;;;2067603;28;19926;-75
2021/01/12 05:16:25;;;;;;;;;;;11.10;75.90;;;;;;2067692;28;19925;-76
2021/01/12 05:17:29;;;;;;;;;;;11.30;76.00;;;;;;2068272;28;19933;-76
2021/01/12 05:18:34;;;;;;;;;;;11.30;75.50;;;;;;2067605;28;19941;-77
2021/01/12 05:19:39;;;;;;;;;;;10.50;78.20;;;;;;2067751;28;19988;-76
2021/01/12 05:20:42;;;;;;;;;;;10.50;79.30;;;;;;2068241;28;19926;-76
2021/01/12 05:21:44;;;;;;;;;;;10.40;79.70;;;;;;2068169;28;19932;-76
2021/01/12 05:22:54;;;;;;;;;;;10.30;80.30;;;;;;2068213;28;19980;-76
2021/01/12 05:24:01;;;;;;;;;;;10.30;80.30;;;;;;2068307;28;19926;-77
2021/01/12 05:25:19;;;;;;;;;;;10.40;80.30;;;;;;2067483;28;19925;-76
2021/01/12 05:26:22;;;;;;;;;;;10.40;79.90;;;;;;2067203;28;20423;-76
2021/01/12 05:27:23;;;;;;;;;;;10.90;78.20;;;;;;2067377;28;20008;-76
2021/01/12 05:28:26;;;;;;;;;;;10.70;79.60;;;;;;2067007;28;19972;-76
2021/01/12 05:29:30;;;;;;;;;;;11.00;76.80;;;;;;2067079;28;19969;-76
2021/01/12 05:30:31;;;;;;;;;;;11.20;76.00;;;;;;2067055;28;19938;-76
2021/01/12 05:31:36;;;;;;;;;;;11.10;77.10;;;;;;2067259;28;20073;-76
2021/01/12 05:32:39;;;;;;;;;;;10.70;77.90;;;;;;2067674;28;19937;-77
2021/01/12 05:33:42;;;;;;;;;;;10.80;78.30;;;;;;2067552;28;19926;-77
2021/01/12 05:34:44;;;;;;;;;;;10.30;79.50;;;;;;2067608;28;20290;-76
2021/01/12 05:35:46;;;;;;;;;;;10.40;79.80;;;;;;2067653;28;20389;-77
2021/01/12 05:36:49;;;;;;;;;;;10.90;78.40;;;;;;2067660;28;19926;-76
2021/01/12 05:37:50;;;;;;;;;;;10.80;77.60;;;;;;2067682;28;19933;-76
2021/01/12 05:38:53;;;;;;;;;;;10.70;78.40;;;;;;2067595;28;20281;-76
2021/01/12 05:39:56;;;;;;;;;;;10.70;78.20;;;;;;2067622;28;19926;-76
2021/01/12 05:40:58;;;;;;;;;;;10.20;79.90;;;;;;2067781;28;19937;-75
2021/01/12 05:42:03;;;;;;;;;;;10.00;80.20;;;;;;2067178;28;19926;-76
2021/01/12 05:43:05;;;;;;;;;;;10.20;81.10;;;;;;2067323;28;19930;-77
2021/01/12 05:44:11;;;;;;;;;;;10.40;80.60;;;;;;2068217;28;19926;-75
2021/01/12 05:45:13;;;;;;;;;;;10.50;79.60;;;;;;2067643;28;19926;-75
2021/01/12 05:46:14;;;;;;;;;;;10.60;79.20;;;;;;2067737;28;19952;-74
2021/01/12 05:47:16;;;;;;;;;;;10.20;80.90;;;;;;2067403;28;20369;-75
2021/01/12 05:48:19;;;;;;;;;;;10.20;81.10;;;;;;2067496;28;19926;-76
2021/01/12 05:49:21;;;;;;;;;;;10.10;80.60;;;;;;2067499;28;19937;-74
2021/01/12 05:50:23;;;;;;;;;;;10.40;79.90;;;;;;2067579;28;19932;-76
2021/01/12 05:51:25;;;;;;;;;;;10.60;79.40;;;;;;2067425;28;19926;-75
2021/01/12 05:52:27;;;;;;;;;;;10.80;78.80;;;;;;2067772;28;19926;-75
2021/01/12 05:53:32;;;;;;;;;;;10.90;77.40;;;;;;2067218;28;19932;-76
2021/01/12 05:54:37;;;;;;;;;;;10.30;79.80;;;;;;2067097;28;19933;-76
2021/01/12 05:55:39;;;;;;;;;;;10.30;80.00;;;;;;2067542;28;19929;-76
2021/01/12 05:56:41;;;;;;;;;;;10.30;80.10;;;;;;2067693;28;19929;-76
2021/01/12 05:57:47;;;;;;;;;;;10.20;80.20;;;;;;2067587;28;19926;-75
2021/01/12 05:58:49;;;;;;;;;;;10.30;79.90;;;;;;2074969;28;20377;-75
2021/01/12 05:59:52;;;;;;;;;;;10.20;80.30;;;;;;2066901;28;19926;-74
2021/01/12 06:00:54;;;;;;;;;;;10.00;80.70;;;;;;2066906;28;19925;-76
2021/01/12 06:01:55;;;;;;;;;;;10.70;78.50;;;;;;2067254;28;20164;-75
2021/01/12 06:02:57;;;;;;;;;;;11.10;77.10;;;;;;2067719;28;19925;-76
2021/01/12 06:04:02;;;;;;;;;;;10.70;77.20;;;;;;2067511;28;19926;-76
2021/01/12 06:05:03;;;;;;;;;;;10.50;79.00;;;;;;2067516;28;19925;-75